createdAt,value
2019-01-09T00:00:06.926Z,92.19
2019-01-09T00:01:06.947Z,92.57
2019-01-09T00:02:06.931Z,90.97
2019-01-09T00:03:06.936Z,91.35
2019-01-09T00:04:06.938Z,91.53
2019-01-09T00:05:06.942Z,90.97
2019-01-09T00:06:06.946Z,91.72
2019-01-09T00:07:06.952Z,92.19
2019-01-09T00:08:06.949Z,91.25
2019-01-09T00:09:06.953Z,90.87
2019-01-09T00:10:06.975Z,90.50
2019-01-09T00:11:06.958Z,91.35
2019-01-09T00:12:06.962Z,92.76
2019-01-09T00:13:06.966Z,92.95
2019-01-09T00:14:06.967Z,94.18
2019-01-09T00:15:06.971Z,94.93
2019-01-09T00:16:06.974Z,95.31
2019-01-09T00:17:06.979Z,95.31
2019-01-09T00:18:06.979Z,95.97
2019-01-09T00:19:06.983Z,95.97
2019-01-09T00:20:06.985Z,96.44
2019-01-09T00:21:06.988Z,95.87
2019-01-09T00:22:06.990Z,95.12
2019-01-09T00:23:06.995Z,95.31
2019-01-09T00:24:06.997Z,96.06
2019-01-09T00:25:07.002Z,96.34
2019-01-09T00:26:07.003Z,97.38
2019-01-09T00:27:07.006Z,97.76
2019-01-09T00:28:07.012Z,97.85
2019-01-09T00:29:07.016Z,98.80
2019-01-09T00:30:07.018Z,96.91
2019-01-09T00:31:07.020Z,95.87
2019-01-09T00:32:07.024Z,95.36
2019-01-09T00:33:07.029Z,94.74
2019-01-09T00:34:07.032Z,94.84
2019-01-09T00:35:07.034Z,94.18
2019-01-09T00:36:07.036Z,94.27
2019-01-09T00:37:07.040Z,94.46
2019-01-09T00:38:07.040Z,93.99
2019-01-09T00:39:07.042Z,94.08
2019-01-09T00:40:07.048Z,94.08
2019-01-09T00:41:07.051Z,94.08
2019-01-09T00:42:07.049Z,95.12
2019-01-09T00:43:07.052Z,94.65
2019-01-09T00:44:07.058Z,94.46
2019-01-09T00:45:07.063Z,93.89
2019-01-09T00:46:07.060Z,93.84
2019-01-09T00:47:07.063Z,94.32
2019-01-09T00:48:07.070Z,94.13
2019-01-09T00:49:07.075Z,93.13
2019-01-09T00:50:07.074Z,93.04
2019-01-09T00:51:07.074Z,94.03
2019-01-09T00:52:07.083Z,95.12
2019-01-09T00:53:07.086Z,93.42
2019-01-09T00:54:07.084Z,92.57
2019-01-09T00:55:07.090Z,92.38
2019-01-09T00:56:07.090Z,91.91
2019-01-09T00:57:07.092Z,92.38
2019-01-09T00:58:07.096Z,93.23
2019-01-09T00:59:07.101Z,93.23
2019-01-09T01:00:07.102Z,92.66
2019-01-09T01:01:07.105Z,92.00
2019-01-09T01:02:07.105Z,91.25
2019-01-09T01:03:07.110Z,90.78
2019-01-09T01:04:07.111Z,89.83
2019-01-09T01:05:07.114Z,88.79
2019-01-09T01:06:07.115Z,89.17
2019-01-09T01:07:07.121Z,89.93
2019-01-09T01:08:07.124Z,89.93
2019-01-09T01:09:07.126Z,89.13
2019-01-09T01:10:07.128Z,89.60
2019-01-09T01:11:07.132Z,89.69
2019-01-09T01:12:07.131Z,91.67
2019-01-09T01:13:07.139Z,91.82
2019-01-09T01:14:07.137Z,91.96
2019-01-09T01:15:07.142Z,92.57
2019-01-09T01:16:07.142Z,93.32
2019-01-09T01:17:07.147Z,94.03
2019-01-09T01:18:07.204Z,94.27
2019-01-09T01:19:07.155Z,93.37
2019-01-09T01:20:07.157Z,92.61
2019-01-09T01:21:07.158Z,93.18
2019-01-09T01:22:07.164Z,94.13
2019-01-09T01:23:07.164Z,94.88
2019-01-09T01:24:07.164Z,96.01
2019-01-09T01:25:07.165Z,98.47
2019-01-09T01:26:07.171Z,99.03
2019-01-09T01:27:07.173Z,99.03
2019-01-09T01:28:07.176Z,98.56
2019-01-09T01:29:07.179Z,98.75
2019-01-09T01:30:07.178Z,99.41
2019-01-09T01:31:07.183Z,99.32
2019-01-09T01:32:07.183Z,98.56
2019-01-09T01:33:07.186Z,98.75
2019-01-09T01:34:07.189Z,99.41
2019-01-09T01:35:07.191Z,99.03
2019-01-09T01:36:07.197Z,99.99
2019-01-09T01:37:07.199Z,99.99
2019-01-09T01:38:07.197Z,99.99
2019-01-09T01:39:07.201Z,99.99
2019-01-09T01:40:07.203Z,99.99
2019-01-09T01:41:07.206Z,99.99
2019-01-09T01:42:07.207Z,99.99
2019-01-09T01:43:07.211Z,99.99
2019-01-09T01:44:07.215Z,99.99
2019-01-09T01:45:07.214Z,99.99
2019-01-09T01:46:07.223Z,99.99
2019-01-09T01:47:07.220Z,99.98
2019-01-09T01:48:07.225Z,99.32
2019-01-09T01:49:07.226Z,98.56
2019-01-09T01:50:07.228Z,97.99
2019-01-09T01:51:07.231Z,97.61
2019-01-09T01:52:07.235Z,97.52
2019-01-09T01:53:07.239Z,97.14
2019-01-09T01:54:07.236Z,96.86
2019-01-09T01:55:07.239Z,95.64
2019-01-09T01:56:07.245Z,95.17
2019-01-09T01:57:07.244Z,95.45
2019-01-09T01:58:07.248Z,94.51
2019-01-09T01:59:07.246Z,95.07
2019-01-09T02:00:07.249Z,94.79
2019-01-09T02:01:07.327Z,95.36
2019-01-09T02:02:07.254Z,95.26
2019-01-09T02:03:07.258Z,94.79
2019-01-09T02:04:07.263Z,94.22
2019-01-09T02:05:07.261Z,91.96
2019-01-09T02:06:07.267Z,89.51
2019-01-09T02:07:07.265Z,88.09
2019-01-09T02:08:07.269Z,88.47
2019-01-09T02:09:07.269Z,90.83
2019-01-09T02:10:07.273Z,91.77
2019-01-09T02:11:07.346Z,91.49
2019-01-09T02:12:07.279Z,91.30
2019-01-09T02:13:07.278Z,92.05
2019-01-09T02:14:07.279Z,92.33
2019-01-09T02:15:07.282Z,92.99
2019-01-09T02:16:07.363Z,93.18
2019-01-09T02:17:07.286Z,93.18
2019-01-09T02:18:07.288Z,94.03
2019-01-09T02:19:07.291Z,94.03
2019-01-09T02:20:07.298Z,94.41
2019-01-09T02:21:07.294Z,94.13
2019-01-09T02:22:07.300Z,95.17
2019-01-09T02:23:07.301Z,94.88
2019-01-09T02:24:07.301Z,94.32
2019-01-09T02:25:07.361Z,93.56
2019-01-09T02:26:07.305Z,94.13
2019-01-09T02:27:07.311Z,93.75
2019-01-09T02:28:07.309Z,94.51
2019-01-09T02:29:07.322Z,95.45
2019-01-09T02:30:07.316Z,95.92
2019-01-09T02:31:07.314Z,95.92
2019-01-09T02:32:07.325Z,95.73
2019-01-09T02:33:07.321Z,95.26
2019-01-09T02:34:07.322Z,96.67
2019-01-09T02:35:07.329Z,97.05
2019-01-09T02:36:13.296Z,97.90
2019-01-09T02:37:07.329Z,98.28
2019-01-09T02:38:07.330Z,99.22
2019-01-09T02:39:07.335Z,98.47
2019-01-09T02:40:07.387Z,98.28
2019-01-09T02:41:07.341Z,98.18
2019-01-09T02:42:07.339Z,98.94
2019-01-09T02:43:07.340Z,98.56
2019-01-09T02:44:07.343Z,98.56
2019-01-09T02:45:07.348Z,99.13
2019-01-09T02:46:07.345Z,98.75
2019-01-09T02:47:07.349Z,98.56
2019-01-09T02:48:07.351Z,99.22
2019-01-09T02:49:07.355Z,99.32
2019-01-09T02:50:07.354Z,99.32
2019-01-09T02:51:07.356Z,99.22
2019-01-09T02:52:07.367Z,99.41
2019-01-09T02:53:07.364Z,99.13
2019-01-09T02:54:07.363Z,99.99
2019-01-09T02:55:07.365Z,99.99
2019-01-09T02:56:07.367Z,99.99
2019-01-09T02:57:07.370Z,99.99
2019-01-09T02:58:07.374Z,99.99
2019-01-09T02:59:07.417Z,99.99
2019-01-09T03:00:07.379Z,99.99
2019-01-09T03:01:07.377Z,99.99
2019-01-09T03:02:07.377Z,99.99
2019-01-09T03:03:07.384Z,99.99
2019-01-09T03:04:07.387Z,99.99
2019-01-09T03:05:07.385Z,99.45
2019-01-09T03:06:07.387Z,98.94
2019-01-09T03:07:07.388Z,99.99
2019-01-09T03:08:07.396Z,99.99
2019-01-09T03:09:07.394Z,99.99
2019-01-09T03:10:07.395Z,99.99
2019-01-09T03:11:07.394Z,99.99
2019-01-09T03:12:07.399Z,99.99
2019-01-09T03:13:07.400Z,99.99
2019-01-09T03:14:07.408Z,99.99
2019-01-09T03:15:07.405Z,99.99
2019-01-09T03:16:07.402Z,99.99
2019-01-09T03:17:07.406Z,99.99
2019-01-09T03:18:07.410Z,99.99
2019-01-09T03:19:07.408Z,99.99
2019-01-09T03:20:07.412Z,99.99
2019-01-09T03:21:07.411Z,99.99
2019-01-09T03:22:07.411Z,99.99
2019-01-09T03:23:07.419Z,99.99
2019-01-09T03:24:07.430Z,99.99
2019-01-09T03:25:07.419Z,99.99
2019-01-09T03:26:07.428Z,99.99
2019-01-09T03:27:07.420Z,99.99
2019-01-09T03:28:07.421Z,99.99
2019-01-09T03:29:07.422Z,99.99
2019-01-09T03:30:07.425Z,99.99
2019-01-09T03:31:07.432Z,99.99
2019-01-09T03:32:07.438Z,99.99
2019-01-09T03:33:07.431Z,99.99
2019-01-09T03:34:07.428Z,99.99
2019-01-09T03:35:07.432Z,99.99
2019-01-09T03:36:07.439Z,99.99
2019-01-09T03:37:07.443Z,99.99
2019-01-09T03:38:07.446Z,99.99
2019-01-09T03:57:07.464Z,99.99
2019-01-09T03:58:07.466Z,99.99
2019-01-09T03:59:07.466Z,99.99
2019-01-09T04:00:07.466Z,99.99
2019-01-09T04:01:07.473Z,99.99
2019-01-09T04:02:07.465Z,99.99
2019-01-09T04:03:07.460Z,99.99
2019-01-09T04:04:07.461Z,99.99
2019-01-09T04:05:07.465Z,99.99
2019-01-09T04:06:07.462Z,99.99
2019-01-09T04:07:07.463Z,99.99
2019-01-09T04:08:07.464Z,99.99
2019-01-09T04:09:07.465Z,99.99
2019-01-09T04:10:07.465Z,99.99
2019-01-09T04:11:07.469Z,99.99
2019-01-09T04:12:07.471Z,99.99
2019-01-09T04:13:07.468Z,99.99
2019-01-09T04:14:07.474Z,99.99
2019-01-09T04:15:07.471Z,99.99
2019-01-09T04:16:07.472Z,99.99
2019-01-09T04:17:07.471Z,99.99
2019-01-09T04:18:07.470Z,99.99
2019-01-09T04:19:07.473Z,99.99
2019-01-09T04:20:07.474Z,99.99
2019-01-09T04:21:07.473Z,99.99
2019-01-09T04:22:07.473Z,99.99
2019-01-09T04:23:07.473Z,99.99
2019-01-09T04:24:07.475Z,99.99
2019-01-09T04:25:07.477Z,99.99
2019-01-09T04:26:07.476Z,98.79
2019-01-09T04:27:07.488Z,99.74
2019-01-09T04:28:07.481Z,99.99
2019-01-09T04:29:07.478Z,99.99
2019-01-09T04:30:07.482Z,99.99
2019-01-09T04:31:07.478Z,99.99
2019-01-09T04:32:07.482Z,99.26
2019-01-09T04:33:07.482Z,97.38
2019-01-09T04:34:07.480Z,97.38
2019-01-09T04:35:07.481Z,97.38
2019-01-09T04:36:07.486Z,96.72
2019-01-09T04:37:07.484Z,97.28
2019-01-09T04:38:07.484Z,96.15
2019-01-09T04:39:07.484Z,95.87
2019-01-09T04:40:07.485Z,96.44
2019-01-09T04:41:07.486Z,96.72
2019-01-09T04:42:07.486Z,97.28
2019-01-09T04:43:07.485Z,97.66
2019-01-09T04:44:07.489Z,97.66
2019-01-09T04:45:07.486Z,97.75
2019-01-09T04:46:07.487Z,97.09
2019-01-09T04:47:07.487Z,96.53
2019-01-09T04:48:07.491Z,96.44
2019-01-09T04:49:07.489Z,96.62
2019-01-09T04:50:07.491Z,96.06
2019-01-09T04:51:07.598Z,95.78
2019-01-09T04:52:07.507Z,95.68
2019-01-09T04:53:07.491Z,95.68
2019-01-09T04:54:07.492Z,96.25
2019-01-09T04:55:07.492Z,96.91
2019-01-09T04:56:07.492Z,97.38
2019-01-09T04:57:07.494Z,97.19
2019-01-09T04:58:07.495Z,97.66
2019-01-09T04:59:07.496Z,96.53
2019-01-09T05:00:07.498Z,95.59
2019-01-09T05:01:07.496Z,95.68
2019-01-09T05:02:07.498Z,96.34
2019-01-09T05:03:07.499Z,96.81
2019-01-09T05:04:07.505Z,96.44
2019-01-09T05:05:07.501Z,96.62
2019-01-09T05:06:07.500Z,97.66
2019-01-09T05:07:07.502Z,97.19
2019-01-09T05:08:07.502Z,96.53
2019-01-09T05:09:07.502Z,97.09
2019-01-09T05:10:07.502Z,96.15
2019-01-09T05:11:07.505Z,92.57
2019-01-09T05:12:07.509Z,91.25
2019-01-09T05:13:07.507Z,90.59
2019-01-09T05:14:07.505Z,90.97
2019-01-09T05:15:07.508Z,91.53
2019-01-09T05:16:07.511Z,91.82
2019-01-09T05:17:07.511Z,92.00
2019-01-09T05:18:07.508Z,91.63
2019-01-09T05:19:07.510Z,91.72
2019-01-09T05:20:07.511Z,91.82
2019-01-09T05:21:07.511Z,92.19
2019-01-09T05:22:07.511Z,92.38
2019-01-09T05:23:07.514Z,92.38
2019-01-09T05:24:07.514Z,92.00
2019-01-09T05:25:07.516Z,92.57
2019-01-09T05:26:07.515Z,91.82
2019-01-09T05:27:07.529Z,91.35
2019-01-09T05:28:07.520Z,92.29
2019-01-09T05:29:07.519Z,91.91
2019-01-09T05:30:07.517Z,89.46
2019-01-09T05:31:08.043Z,88.99
2019-01-09T05:32:07.522Z,85.88
2019-01-09T05:33:07.523Z,83.05
2019-01-09T05:34:07.527Z,83.90
2019-01-09T05:35:07.523Z,85.60
2019-01-09T05:36:07.524Z,86.44
2019-01-09T05:37:09.635Z,87.01
2019-01-09T05:38:07.526Z,87.19
2019-01-09T05:39:07.535Z,88.42
2019-01-09T05:40:07.527Z,89.46
2019-01-09T05:41:07.529Z,88.89
2019-01-09T05:42:07.528Z,90.12
2019-01-09T05:43:07.532Z,90.59
2019-01-09T05:44:07.532Z,91.16
2019-01-09T05:45:07.531Z,91.25
2019-01-09T05:46:07.533Z,91.91
2019-01-09T05:47:07.539Z,92.57
2019-01-09T05:48:07.536Z,92.66
2019-01-09T05:49:07.536Z,92.38
2019-01-09T05:50:07.536Z,92.47
2019-01-09T05:51:07.537Z,92.95
2019-01-09T05:52:07.537Z,93.80
2019-01-09T05:53:07.542Z,94.83
2019-01-09T05:54:07.540Z,95.59
2019-01-09T05:55:07.543Z,96.44
2019-01-09T05:56:07.542Z,95.40
2019-01-09T05:57:07.543Z,95.68
2019-01-09T05:58:07.542Z,96.81
2019-01-09T05:59:07.546Z,97.66
2019-01-09T06:00:07.547Z,99.74
2019-01-09T06:01:07.548Z,99.99
2019-01-09T06:02:07.549Z,99.99
2019-01-09T06:03:07.550Z,99.99
2019-01-09T06:04:07.550Z,99.99
2019-01-09T06:05:07.555Z,99.99
2019-01-09T06:06:07.553Z,99.99
2019-01-09T06:07:07.557Z,99.99
2019-01-09T06:08:07.556Z,99.99
2019-01-09T06:09:07.555Z,99.99
2019-01-09T06:10:07.557Z,99.99
2019-01-09T06:11:07.559Z,99.99
2019-01-09T06:12:07.560Z,99.99
2019-01-09T06:13:07.565Z,99.99
2019-01-09T06:14:07.566Z,99.99
2019-01-09T06:15:07.565Z,99.99
2019-01-09T06:16:07.564Z,99.99
2019-01-09T06:17:07.565Z,99.99
2019-01-09T06:18:07.565Z,99.99
2019-01-09T06:19:07.567Z,99.99
2019-01-09T06:20:07.567Z,99.99
2019-01-09T06:21:07.571Z,99.99
2019-01-09T06:22:07.572Z,99.99
2019-01-09T06:23:07.571Z,99.99
2019-01-09T06:24:07.572Z,99.99
2019-01-09T06:25:07.583Z,99.99
2019-01-09T06:26:07.572Z,99.99
2019-01-09T06:27:07.577Z,99.99
2019-01-09T06:28:07.575Z,99.99
2019-01-09T06:29:07.576Z,99.99
2019-01-09T06:30:07.577Z,99.99
2019-01-09T06:31:07.582Z,99.99
2019-01-09T06:32:07.580Z,99.99
2019-01-09T06:33:07.580Z,99.99
2019-01-09T06:34:07.584Z,99.99
2019-01-09T06:35:07.587Z,99.99
2019-01-09T06:36:07.587Z,99.99
2019-01-09T06:37:07.591Z,99.99
2019-01-09T06:38:07.585Z,99.99
2019-01-09T06:39:07.586Z,99.99
2019-01-09T06:40:07.592Z,99.99
2019-01-09T06:41:07.590Z,99.99
2019-01-09T06:42:07.593Z,99.99
2019-01-09T06:43:07.592Z,99.99
2019-01-09T06:44:07.593Z,99.99
2019-01-09T06:45:07.592Z,99.99
2019-01-09T06:46:07.592Z,99.99
2019-01-09T06:47:07.592Z,99.99
2019-01-09T06:48:07.595Z,99.99
2019-01-09T06:49:07.598Z,99.99
2019-01-09T06:50:07.595Z,99.99
2019-01-09T06:51:07.596Z,99.99
2019-01-09T06:52:07.598Z,99.99
2019-01-09T06:53:07.615Z,99.99
2019-01-09T06:54:07.648Z,99.99
2019-01-09T06:55:07.631Z,99.99
2019-01-09T06:56:07.613Z,99.99
2019-01-09T06:57:07.604Z,99.99
2019-01-09T06:58:07.603Z,99.99
2019-01-09T06:59:07.605Z,99.99
2019-01-09T07:00:07.606Z,99.99
2019-01-09T07:01:07.608Z,99.99
2019-01-09T07:02:07.610Z,99.99
2019-01-09T07:03:07.612Z,99.99
2019-01-09T07:04:07.609Z,99.99
2019-01-09T07:05:07.612Z,99.99
2019-01-09T07:06:07.611Z,99.99
2019-01-09T07:07:07.612Z,99.99
2019-01-09T07:08:07.616Z,99.99
2019-01-09T07:09:07.615Z,99.99
2019-01-09T07:10:07.618Z,99.99
2019-01-09T07:11:07.615Z,99.99
2019-01-09T07:12:07.617Z,99.99
2019-01-09T07:13:07.619Z,99.99
2019-01-09T07:14:07.626Z,99.99
2019-01-09T07:15:12.493Z,99.99
2019-01-09T07:16:07.620Z,99.99
2019-01-09T07:17:07.622Z,99.99
2019-01-09T07:18:07.624Z,99.99
2019-01-09T07:19:07.625Z,99.99
2019-01-09T07:20:07.625Z,99.99
2019-01-09T07:21:07.630Z,99.99
2019-01-09T07:22:07.627Z,99.99
2019-01-09T07:23:07.629Z,99.99
2019-01-09T07:24:07.633Z,99.99
2019-01-09T07:25:07.632Z,99.99
2019-01-09T07:26:07.630Z,99.99
2019-01-09T07:27:07.631Z,99.99
2019-01-09T07:28:07.633Z,99.99
2019-01-09T07:29:07.634Z,99.99
2019-01-09T07:30:07.634Z,99.99
2019-01-09T07:31:07.638Z,99.99
2019-01-09T07:32:07.640Z,99.99
2019-01-09T07:33:07.643Z,99.99
2019-01-09T07:34:07.640Z,99.99
2019-01-09T07:35:07.640Z,99.99
2019-01-09T07:36:07.644Z,99.99
2019-01-09T07:37:07.644Z,99.99
2019-01-09T07:38:07.643Z,99.99
2019-01-09T07:39:07.646Z,99.99
2019-01-09T07:40:07.728Z,99.99
2019-01-09T07:41:07.649Z,99.99
2019-01-09T07:42:07.649Z,99.99
2019-01-09T07:43:07.654Z,99.99
2019-01-09T07:44:07.660Z,99.99
2019-01-09T07:45:07.656Z,99.99
2019-01-09T07:46:07.653Z,99.99
2019-01-09T07:47:07.659Z,99.99
2019-01-09T07:48:07.656Z,99.99
2019-01-09T07:49:07.660Z,99.99
2019-01-09T07:50:07.659Z,99.99
2019-01-09T07:51:07.660Z,99.99
2019-01-09T07:52:07.661Z,99.99
2019-01-09T07:53:07.668Z,99.99
2019-01-09T07:54:07.663Z,99.99
2019-01-09T07:55:07.670Z,99.99
2019-01-09T07:56:07.668Z,99.99
2019-01-09T07:57:07.667Z,99.99
2019-01-09T07:58:07.672Z,99.99
2019-01-09T07:59:07.670Z,99.99
2019-01-09T08:00:07.671Z,99.99
2019-01-09T08:01:07.674Z,99.99
2019-01-09T08:02:07.674Z,99.99
2019-01-09T08:03:07.677Z,99.99
2019-01-09T08:04:07.676Z,99.99
2019-01-09T08:05:07.679Z,99.99
2019-01-09T08:06:07.680Z,99.99
2019-01-09T08:07:07.679Z,99.99
2019-01-09T08:08:07.683Z,99.99
2019-01-09T08:09:07.685Z,99.99
2019-01-09T08:10:07.687Z,99.99
2019-01-09T08:11:07.686Z,99.99
2019-01-09T08:12:07.694Z,99.99
2019-01-09T08:13:07.689Z,99.99
2019-01-09T08:14:07.690Z,99.99
2019-01-09T08:15:07.692Z,99.99
2019-01-09T08:16:07.694Z,99.99
2019-01-09T08:17:07.694Z,99.99
2019-01-09T08:18:07.696Z,99.99
2019-01-09T08:19:07.700Z,99.99
2019-01-09T08:20:07.701Z,99.99
2019-01-09T08:21:07.702Z,99.99
2019-01-09T08:22:07.707Z,99.99
2019-01-09T08:23:07.706Z,99.99
2019-01-09T08:24:07.707Z,99.99
2019-01-09T08:25:07.708Z,99.99
2019-01-09T08:26:07.713Z,99.99
2019-01-09T08:27:07.712Z,99.99
2019-01-09T08:28:07.712Z,99.99
2019-01-09T08:29:07.715Z,99.99
2019-01-09T08:30:07.713Z,99.99
2019-01-09T08:31:07.717Z,99.99
2019-01-09T08:32:07.721Z,99.99
2019-01-09T08:33:07.721Z,99.99
2019-01-09T08:34:07.722Z,99.99
2019-01-09T08:35:07.727Z,99.99
2019-01-09T08:36:07.726Z,99.99
2019-01-09T08:37:07.726Z,99.99
2019-01-09T08:38:07.727Z,99.99
2019-01-09T08:39:07.730Z,99.99
2019-01-09T08:40:07.731Z,99.99
2019-01-09T08:41:07.735Z,99.99
2019-01-09T08:42:07.732Z,99.93
2019-01-09T08:43:07.736Z,99.26
2019-01-09T08:44:07.736Z,99.45
2019-01-09T08:45:07.745Z,99.99
2019-01-09T08:46:07.739Z,99.99
2019-01-09T08:47:07.746Z,99.45
2019-01-09T08:48:07.745Z,99.99
2019-01-09T08:49:07.746Z,99.99
2019-01-09T08:50:07.753Z,99.99
2019-01-09T08:51:07.748Z,99.99
2019-01-09T08:52:07.751Z,99.99
2019-01-09T08:53:07.753Z,99.99
2019-01-09T08:54:07.753Z,99.99
2019-01-09T08:55:07.755Z,99.99
2019-01-09T08:56:07.756Z,99.99
2019-01-09T08:57:07.758Z,99.99
2019-01-09T08:58:07.757Z,99.99
2019-01-09T08:59:07.764Z,99.99
2019-01-09T09:00:07.762Z,99.99
2019-01-09T09:01:07.766Z,99.99
2019-01-09T09:02:07.767Z,99.99
2019-01-09T09:03:07.764Z,99.99
2019-01-09T09:04:07.765Z,99.99
2019-01-09T09:05:07.769Z,99.99
2019-01-09T09:06:07.770Z,99.99
2019-01-09T09:07:07.773Z,99.99
2019-01-09T09:08:12.213Z,99.99
2019-01-09T09:09:07.772Z,99.99
2019-01-09T09:10:07.772Z,99.99
2019-01-09T09:11:07.775Z,99.99
2019-01-09T09:12:07.774Z,99.99
2019-01-09T09:13:07.775Z,99.99
2019-01-09T09:14:08.140Z,99.99
2019-01-09T09:15:07.775Z,99.99
2019-01-09T09:16:07.884Z,99.99
2019-01-09T09:17:07.778Z,99.99
2019-01-09T09:18:07.780Z,99.99
2019-01-09T09:19:07.778Z,99.99
2019-01-09T09:20:07.779Z,99.99
2019-01-09T09:21:07.782Z,99.99
2019-01-09T09:22:07.781Z,99.99
2019-01-09T09:23:07.782Z,99.99
2019-01-09T09:24:07.782Z,99.99
2019-01-09T09:25:07.782Z,99.99
2019-01-09T09:26:07.780Z,99.99
2019-01-09T09:27:07.781Z,99.99
2019-01-09T09:28:07.783Z,99.99
2019-01-09T09:29:07.787Z,99.99
2019-01-09T09:30:07.785Z,99.99
2019-01-09T09:31:07.786Z,99.99
2019-01-09T09:32:07.785Z,99.99
2019-01-09T09:33:07.786Z,99.99
2019-01-09T09:34:07.786Z,99.99
2019-01-09T09:35:07.790Z,99.99
2019-01-09T09:36:07.786Z,99.99
2019-01-09T09:37:07.790Z,99.99
2019-01-09T09:38:07.787Z,99.99
2019-01-09T09:39:07.790Z,99.99
2019-01-09T09:40:07.788Z,99.99
2019-01-09T09:41:07.791Z,99.99
2019-01-09T09:42:07.789Z,99.99
2019-01-09T09:43:07.793Z,99.99
2019-01-09T09:44:07.791Z,99.99
2019-01-09T09:45:07.792Z,99.99
2019-01-09T09:46:07.792Z,99.99
2019-01-09T09:47:07.794Z,99.99
2019-01-09T09:48:07.795Z,99.99
2019-01-09T09:49:07.796Z,99.99
2019-01-09T09:50:07.884Z,99.99
2019-01-09T09:51:07.799Z,99.99
2019-01-09T09:52:07.800Z,99.99
2019-01-09T09:53:07.801Z,99.99
2019-01-09T09:54:07.803Z,99.99
2019-01-09T09:55:12.777Z,99.99
2019-01-09T09:56:07.803Z,99.99
2019-01-09T09:57:07.804Z,99.99
2019-01-09T09:58:07.807Z,99.99
2019-01-09T09:59:07.813Z,99.99
2019-01-09T10:00:07.809Z,99.99
2019-01-09T10:01:07.809Z,99.99
2019-01-09T10:02:07.811Z,99.99
2019-01-09T10:03:07.815Z,99.99
2019-01-09T10:04:07.815Z,99.99
2019-01-09T10:05:07.814Z,99.99
2019-01-09T10:06:07.817Z,99.99
2019-01-09T10:07:07.817Z,99.99
2019-01-09T10:08:07.819Z,99.99
2019-01-09T10:09:07.822Z,99.98
2019-01-09T10:10:07.824Z,99.98
2019-01-09T10:11:07.824Z,99.41
2019-01-09T10:12:07.827Z,99.99
2019-01-09T10:13:07.828Z,99.22
2019-01-09T10:14:07.829Z,98.28
2019-01-09T10:15:07.834Z,97.71
2019-01-09T10:16:07.837Z,97.43
2019-01-09T10:17:07.834Z,97.90
2019-01-09T10:18:07.836Z,98.65
2019-01-09T10:19:07.836Z,96.20
2019-01-09T10:20:07.844Z,93.94
2019-01-09T10:21:07.843Z,94.32
2019-01-09T10:22:07.852Z,93.37
2019-01-09T10:23:07.849Z,91.67
2019-01-09T10:24:07.848Z,92.33
2019-01-09T10:25:07.858Z,91.49
2019-01-09T10:26:07.852Z,92.52
2019-01-09T10:27:07.852Z,92.90
2019-01-09T10:28:07.873Z,92.99
2019-01-09T10:29:07.856Z,93.37
2019-01-09T10:30:07.860Z,94.32
2019-01-09T10:31:07.860Z,93.94
2019-01-09T10:32:07.863Z,93.94
2019-01-09T10:33:07.868Z,94.13
2019-01-09T10:34:07.865Z,93.28
2019-01-09T10:35:07.869Z,92.52
2019-01-09T10:36:07.869Z,92.43
2019-01-09T10:37:07.874Z,92.47
2019-01-09T10:38:07.875Z,94.46
2019-01-09T10:39:07.877Z,97.85
2019-01-09T10:40:07.879Z,99.99
2019-01-09T10:41:07.880Z,99.99
2019-01-09T10:42:08.330Z,99.99
2019-01-09T10:43:07.884Z,99.99
2019-01-09T10:44:07.885Z,99.99
2019-01-09T10:45:07.885Z,99.99
2019-01-09T10:46:07.887Z,99.99
2019-01-09T10:47:07.889Z,99.99
2019-01-09T10:48:07.895Z,99.99
2019-01-09T10:49:07.897Z,99.99
2019-01-09T10:50:07.893Z,99.99
2019-01-09T10:51:07.896Z,99.99
2019-01-09T10:52:07.899Z,99.99
2019-01-09T10:53:07.908Z,99.99
2019-01-09T10:54:07.902Z,99.99
2019-01-09T10:55:07.904Z,99.99
2019-01-09T10:56:07.907Z,99.99
2019-01-09T10:57:07.905Z,99.83
2019-01-09T10:58:07.908Z,99.32
2019-01-09T10:59:07.910Z,99.03
2019-01-09T11:00:07.911Z,99.22
2019-01-09T11:01:07.912Z,98.75
2019-01-09T11:02:07.913Z,98.56
2019-01-09T11:03:07.916Z,97.52
2019-01-09T11:04:07.921Z,97.80
2019-01-09T11:05:07.920Z,97.71
2019-01-09T11:06:07.921Z,96.86
2019-01-09T11:07:07.922Z,97.28
2019-01-09T11:08:07.923Z,97.94
2019-01-09T11:09:07.928Z,98.56
2019-01-09T11:10:07.929Z,99.79
2019-01-09T11:11:07.930Z,99.99
2019-01-09T11:12:07.933Z,99.99
2019-01-09T11:13:07.936Z,99.99
2019-01-09T11:14:09.432Z,99.98
2019-01-09T11:15:07.937Z,99.60
2019-01-09T11:16:07.940Z,99.41
2019-01-09T11:17:07.941Z,98.56
2019-01-09T11:18:07.942Z,97.43
2019-01-09T11:19:07.946Z,96.11
2019-01-09T11:20:07.945Z,94.79
2019-01-09T11:21:07.952Z,94.98
2019-01-09T11:22:07.951Z,94.03
2019-01-09T11:23:07.975Z,93.75
2019-01-09T11:24:07.957Z,91.49
2019-01-09T11:25:07.961Z,91.30
2019-01-09T11:26:07.960Z,91.30
2019-01-09T11:27:07.960Z,91.58
2019-01-09T11:28:07.965Z,91.49
2019-01-09T11:29:07.972Z,91.20
2019-01-09T11:30:07.971Z,90.73
2019-01-09T11:31:07.971Z,91.49
2019-01-09T11:32:09.531Z,92.24
2019-01-09T11:33:07.975Z,91.67
2019-01-09T11:34:07.978Z,90.83
2019-01-09T11:35:07.979Z,90.64
2019-01-09T11:36:07.983Z,91.20
2019-01-09T11:37:07.985Z,91.86
2019-01-09T11:38:07.986Z,91.49
2019-01-09T11:39:07.993Z,91.67
2019-01-09T11:40:07.997Z,92.14
2019-01-09T11:41:07.996Z,92.33
2019-01-09T11:42:07.999Z,92.14
2019-01-09T11:43:07.999Z,92.52
2019-01-09T11:44:08.006Z,92.71
2019-01-09T11:45:08.006Z,92.43
2019-01-09T11:46:08.008Z,91.67
2019-01-09T11:47:08.012Z,91.96
2019-01-09T11:48:08.022Z,92.05
2019-01-09T11:49:08.022Z,92.99
2019-01-09T11:50:08.018Z,93.84
2019-01-09T11:51:08.021Z,95.36
2019-01-09T11:52:08.029Z,95.87
2019-01-09T11:53:08.028Z,95.92
2019-01-09T11:54:08.032Z,96.11
2019-01-09T11:55:08.034Z,97.80
2019-01-09T11:56:08.035Z,99.99
2019-01-09T11:57:08.038Z,99.99
2019-01-09T11:58:08.041Z,99.99
2019-01-09T11:59:08.045Z,99.99
2019-01-09T12:00:08.046Z,99.99
2019-01-09T12:01:08.053Z,99.99
2019-01-09T12:02:08.053Z,99.99
2019-01-09T12:03:08.058Z,99.51
2019-01-09T12:04:08.057Z,98.75
2019-01-09T12:05:08.063Z,98.65
2019-01-09T12:06:08.063Z,99.99
2019-01-09T12:07:08.066Z,99.99
2019-01-09T12:08:08.075Z,99.99
2019-01-09T12:09:08.080Z,99.99
2019-01-09T12:10:08.076Z,99.99
2019-01-09T12:11:08.163Z,99.99
2019-01-09T12:12:08.080Z,99.99
2019-01-09T12:13:08.081Z,99.99
2019-01-09T12:14:08.083Z,99.99
2019-01-09T12:15:08.091Z,98.90
2019-01-09T12:16:08.489Z,97.76
2019-01-09T12:17:08.095Z,97.80
2019-01-09T12:18:08.099Z,96.53
2019-01-09T12:19:08.099Z,93.23
2019-01-09T12:20:08.106Z,92.19
2019-01-09T12:21:16.438Z,92.47
2019-01-09T12:22:08.112Z,90.31
2019-01-09T12:23:08.116Z,88.51
2019-01-09T12:24:08.117Z,86.82
2019-01-09T12:25:08.119Z,88.04
2019-01-09T12:26:08.124Z,90.45
2019-01-09T12:27:08.129Z,91.77
2019-01-09T12:28:08.129Z,92.71
2019-01-09T12:29:08.133Z,93.13
2019-01-09T12:30:08.135Z,91.67
2019-01-09T12:31:08.139Z,92.52
2019-01-09T12:32:08.144Z,92.71
2019-01-09T12:33:08.150Z,92.90
2019-01-09T12:34:08.149Z,92.99
2019-01-09T12:35:08.153Z,92.33
2019-01-09T12:36:08.155Z,92.71
2019-01-09T12:37:08.160Z,92.99
2019-01-09T12:38:08.160Z,93.75
2019-01-09T12:39:13.187Z,93.84
2019-01-09T12:40:08.169Z,95.07
2019-01-09T12:41:08.180Z,96.86
2019-01-09T12:42:08.173Z,97.56
2019-01-09T12:43:08.176Z,99.99
2019-01-09T12:44:08.180Z,99.99
2019-01-09T12:45:08.184Z,99.99
2019-01-09T12:46:08.185Z,99.99
2019-01-09T12:47:08.187Z,99.99
2019-01-09T12:48:08.190Z,99.99
2019-01-09T12:49:08.192Z,99.99
2019-01-09T12:50:08.194Z,99.99
2019-01-09T12:51:08.197Z,99.99
2019-01-09T12:52:08.203Z,99.99
2019-01-09T12:53:08.215Z,99.99
2019-01-09T12:54:08.203Z,99.99
2019-01-09T12:55:08.203Z,99.99
2019-01-09T12:56:08.209Z,99.99
2019-01-09T12:57:08.212Z,99.99
2019-01-09T12:58:08.216Z,99.51
2019-01-09T12:59:08.214Z,97.05
2019-01-09T13:00:08.216Z,96.20
2019-01-09T13:01:08.216Z,94.79
2019-01-09T13:02:08.217Z,95.64
2019-01-09T13:03:08.222Z,96.77
2019-01-09T13:04:08.237Z,97.61
2019-01-09T13:05:08.228Z,96.58
2019-01-09T13:06:08.226Z,95.73
2019-01-09T13:07:08.230Z,94.88
2019-01-09T13:08:08.232Z,93.28
2019-01-09T13:09:08.234Z,91.86
2019-01-09T13:10:08.235Z,87.15